Terminal Aerodrome Forecast
Issued by NWS

Current Version | Previous Version | Graphics & Text | Print | Product List | Glossary On
Versions: 1 2 3 4 5 6 7 8 9 10 11 12 13 14 15 16 17
000
FTUS41 KILN 301624 AAA
TAFLCK
TAF AMD
KLCK 301624Z 3016/3112 25004KT P6SM FEW200
     FM301800 27009G16KT P6SM SKC
     FM302300 28006KT P6SM SKC=

USA.gov is the U.S. government's official web portal to all federal, state and local government web resources and services.